Terminal Aerodrome Forecast
Issued by NWS

Home | Current Version | Previous Version | Text Only | Print | Product List | Glossary Off
Versions: 1 2 3 4 5 6 7 8 9 10 11 12 13 14 15 16 17 18

006
FTUS43 KABR 190537
TAFATY
TAF
KATY 190537Z 1906/2006 21006KT P6SM SCT250
     FM191700 23014KT P6SM SCT250
     FM200000 21006KT P6SM SCT250=

USA.gov is the U.S. government's official web portal to all federal, state and local government web resources and services.